createdAt,value
2019-05-09T00:02:38.093Z,1.17
2019-05-09T00:07:43.951Z,0.93
2019-05-09T00:12:49.438Z,1.00
2019-05-09T00:17:55.183Z,0.90
2019-05-09T00:23:00.124Z,1.00
2019-05-09T00:28:05.141Z,1.07
2019-05-09T00:33:14.285Z,1.00
2019-05-09T00:38:21.036Z,1.20
2019-05-09T00:43:27.098Z,1.10
2019-05-09T00:48:38.386Z,0.93
2019-05-09T00:53:44.438Z,0.83
2019-05-09T00:58:49.243Z,1.00
2019-05-09T01:03:54.480Z,0.90
2019-05-09T01:08:59.227Z,0.90
2019-05-09T01:14:06.018Z,1.00
2019-05-09T01:19:13.938Z,1.20
2019-05-09T01:24:18.384Z,1.10
2019-05-09T01:29:23.174Z,1.10
2019-05-09T01:34:33.099Z,1.10
2019-05-09T01:39:37.595Z,0.87
2019-05-09T01:44:44.142Z,1.00
2019-05-09T01:49:48.825Z,0.90
2019-05-09T01:54:54.267Z,1.00
2019-05-09T01:59:58.932Z,0.90
2019-05-09T02:05:05.077Z,1.00
2019-05-09T02:10:09.749Z,1.10
2019-05-09T02:15:27.402Z,1.13
2019-05-09T02:20:32.810Z,1.00
2019-05-09T02:25:39.598Z,0.93
2019-05-09T02:30:45.135Z,1.40
2019-05-09T02:35:56.559Z,1.00
2019-05-09T02:40:59.589Z,1.20
2019-05-09T02:46:12.037Z,1.20
2019-05-09T02:51:18.493Z,1.20
2019-05-09T02:56:23.148Z,1.50
2019-05-09T03:01:49.947Z,1.40
2019-05-09T03:06:55.830Z,1.20
2019-05-09T03:12:19.768Z,1.20
2019-05-09T03:17:09.651Z,1.30
2019-05-09T03:22:18.881Z,1.00
2019-05-09T03:27:29.019Z,1.40
2019-05-09T03:32:34.009Z,1.00
2019-05-09T03:37:40.202Z,1.20
2019-05-09T03:42:44.937Z,0.77
2019-05-09T03:47:54.541Z,1.20
2019-05-09T03:52:59.155Z,1.00
2019-05-09T03:58:11.490Z,1.00
2019-05-09T04:03:19.925Z,1.00
2019-05-09T04:08:23.818Z,1.00
2019-05-09T04:13:33.693Z,1.00
2019-05-09T04:18:40.264Z,1.03
2019-05-09T04:23:47.992Z,1.00
2019-05-09T04:28:52.547Z,0.90
2019-05-09T04:33:57.554Z,0.90
2019-05-09T04:39:07.677Z,1.00
2019-05-09T04:44:20.903Z,0.90
2019-05-09T04:49:23.401Z,1.10
2019-05-09T04:54:28.158Z,1.20
2019-05-09T04:59:33.769Z,0.90
2019-05-09T05:04:38.478Z,1.00
2019-05-09T05:09:43.169Z,1.00
2019-05-09T05:14:47.808Z,1.00
2019-05-09T05:19:53.313Z,1.20
2019-05-09T05:25:00.654Z,1.00
2019-05-09T05:30:07.678Z,1.00
2019-05-09T05:35:29.806Z,0.93
2019-05-09T05:40:34.562Z,1.07
2019-05-09T05:45:48.020Z,1.20
2019-05-09T05:50:53.212Z,1.00
2019-05-09T05:55:59.787Z,0.97
2019-05-09T06:01:04.917Z,1.20
2019-05-09T06:06:10.949Z,1.03
2019-05-09T06:11:17.748Z,1.17
2019-05-09T06:16:23.639Z,0.83
2019-05-09T06:21:28.512Z,0.67
2019-05-09T06:26:34.867Z,0.90
2019-05-09T06:31:41.333Z,0.97
2019-05-09T06:36:48.961Z,0.90
2019-05-09T06:41:53.533Z,0.90
2019-05-09T06:47:04.501Z,0.70
2019-05-09T06:52:09.151Z,0.90
2019-05-09T06:57:13.985Z,1.00
2019-05-09T07:02:25.280Z,0.90
2019-05-09T07:07:39.859Z,0.87
2019-05-09T07:12:44.514Z,0.83
2019-05-09T07:17:50.604Z,0.80
2019-05-09T07:22:58.238Z,0.70
2019-05-09T07:28:03.732Z,0.97
2019-05-09T07:33:27.855Z,0.70
2019-05-09T07:38:34.398Z,0.83
2019-05-09T07:43:39.029Z,0.90
2019-05-09T07:48:47.702Z,0.90
2019-05-09T07:53:51.772Z,0.90
2019-05-09T07:58:58.504Z,0.70
2019-05-09T08:04:02.972Z,0.60
2019-05-09T08:09:08.845Z,0.80
2019-05-09T08:14:17.625Z,0.60
2019-05-09T08:19:23.404Z,0.70
2019-05-09T08:24:28.057Z,0.63
2019-05-09T08:29:34.119Z,0.70
2019-05-09T08:34:38.820Z,0.70
2019-05-09T08:39:44.763Z,0.50
2019-05-09T08:44:49.577Z,0.53
2019-05-09T08:50:21.324Z,0.90
2019-05-09T08:55:27.783Z,0.70
2019-05-09T09:00:33.021Z,0.60
2019-05-09T09:05:38.245Z,0.80
2019-05-09T09:10:43.189Z,0.53
2019-05-09T09:16:08.814Z,0.70
2019-05-09T09:20:55.226Z,0.80
2019-05-09T09:25:59.749Z,0.73
2019-05-09T09:31:08.198Z,0.57
2019-05-09T09:36:12.662Z,0.60
2019-05-09T09:41:18.405Z,0.70
2019-05-09T09:46:22.996Z,0.70
2019-05-09T09:51:27.785Z,0.70
2019-05-09T09:56:32.963Z,0.70
2019-05-09T10:01:40.213Z,0.50
2019-05-09T10:06:48.094Z,0.63
2019-05-09T10:11:52.574Z,0.60
2019-05-09T10:17:25.366Z,0.73
2019-05-09T10:22:30.161Z,0.70
2019-05-09T10:27:35.017Z,0.70
2019-05-09T10:32:39.904Z,0.70
2019-05-09T10:37:44.597Z,0.70
2019-05-09T10:42:58.504Z,0.50
2019-05-09T10:48:02.608Z,0.70
2019-05-09T10:53:08.275Z,0.50
2019-05-09T10:58:13.024Z,0.60
2019-05-09T11:03:18.190Z,0.60
2019-05-09T11:08:22.742Z,0.60
2019-05-09T11:13:28.748Z,0.90
2019-05-09T11:18:33.534Z,0.60
2019-05-09T11:23:39.343Z,0.63
2019-05-09T11:28:44.018Z,0.67
2019-05-09T11:33:49.677Z,0.47
2019-05-09T11:38:54.215Z,0.67
2019-05-09T11:43:59.929Z,0.70
2019-05-09T11:49:04.745Z,0.60
2019-05-09T11:54:09.959Z,0.70
2019-05-09T11:59:15.626Z,0.57
2019-05-09T12:04:21.621Z,0.80
2019-05-09T12:09:28.580Z,0.77
2019-05-09T12:14:32.430Z,0.70
2019-05-09T12:19:38.027Z,0.50
2019-05-09T12:24:42.789Z,0.60
2019-05-09T12:29:48.386Z,0.50
2019-05-09T12:34:53.148Z,0.30
2019-05-09T12:39:58.562Z,0.57
2019-05-09T12:45:03.354Z,0.37
2019-05-09T12:50:08.643Z,0.60
2019-05-09T12:55:13.437Z,0.60
2019-05-09T13:00:20.850Z,0.60
2019-05-09T13:05:27.265Z,0.70
2019-05-09T13:10:31.740Z,0.50
2019-05-09T13:15:42.955Z,0.50
2019-05-09T13:20:48.734Z,0.53
2019-05-09T13:25:53.496Z,0.40
2019-05-09T13:30:59.255Z,0.53
2019-05-09T13:36:03.864Z,0.50
2019-05-09T13:41:08.660Z,0.50
2019-05-09T13:46:13.261Z,0.50
2019-05-09T13:51:20.405Z,0.50
2019-05-09T13:56:24.999Z,0.60
2019-05-09T14:01:30.513Z,0.27
2019-05-09T14:06:35.040Z,0.47
2019-05-09T14:11:39.652Z,0.40
2019-05-09T14:16:44.202Z,0.50
2019-05-09T14:21:49.812Z,0.40
2019-05-09T14:26:54.380Z,0.57
2019-05-09T14:31:59.619Z,0.40
2019-05-09T14:37:04.247Z,0.33
2019-05-09T14:42:09.289Z,0.33
2019-05-09T14:47:13.908Z,0.43
2019-05-09T14:52:20.802Z,0.33
2019-05-09T14:57:25.348Z,0.40
2019-05-09T15:02:30.638Z,0.50
2019-05-09T15:07:35.157Z,0.50
2019-05-09T15:12:40.957Z,0.30
2019-05-09T15:17:45.526Z,0.50
2019-05-09T15:22:51.156Z,0.30
2019-05-09T15:27:57.898Z,0.60
2019-05-09T15:33:03.022Z,0.60
2019-05-09T15:38:08.508Z,0.57
2019-05-09T15:43:14.416Z,0.50
2019-05-09T15:48:19.044Z,0.57
2019-05-09T15:53:24.828Z,0.40
2019-05-09T15:58:31.817Z,0.40
2019-05-09T16:03:38.253Z,0.50
2019-05-09T16:08:43.107Z,0.50
2019-05-09T16:13:48.179Z,0.40
2019-05-09T16:18:52.856Z,0.50
2019-05-09T16:23:59.414Z,0.40
2019-05-09T16:29:04.231Z,0.60
2019-05-09T16:34:09.741Z,0.70
2019-05-09T16:39:14.535Z,0.40
2019-05-09T16:44:20.282Z,0.53
2019-05-09T16:49:25.937Z,0.40
2019-05-09T16:54:38.618Z,0.73
2019-05-09T16:59:42.805Z,0.80
2019-05-09T17:04:48.486Z,0.80
2019-05-09T17:09:53.007Z,0.53
2019-05-09T17:14:59.737Z,0.83
2019-05-09T17:20:05.005Z,0.80
2019-05-09T17:25:11.119Z,0.80
2019-05-09T17:30:15.662Z,0.60
2019-05-09T17:35:21.383Z,0.70
2019-05-09T17:40:27.994Z,0.90
2019-05-09T17:45:38.451Z,0.80
2019-05-09T17:50:41.477Z,0.80
2019-05-09T17:55:47.804Z,1.10
2019-05-09T18:00:52.308Z,1.10
2019-05-09T18:05:57.738Z,0.90
2019-05-09T18:11:02.550Z,0.83
2019-05-09T18:16:08.428Z,0.90
2019-05-09T18:21:13.033Z,0.80
2019-05-09T18:26:19.072Z,1.00
2019-05-09T18:31:27.828Z,0.70
2019-05-09T18:36:32.865Z,0.77
2019-05-09T18:41:38.348Z,0.67
2019-05-09T18:46:42.978Z,0.70
2019-05-09T18:52:02.774Z,0.70
2019-05-09T18:56:56.361Z,0.60
2019-05-09T19:02:00.975Z,0.53
2019-05-09T19:07:20.815Z,0.80
2019-05-09T19:12:12.289Z,0.70
2019-05-09T19:17:46.422Z,0.57
2019-05-09T19:22:51.021Z,0.90
2019-05-09T19:27:55.852Z,0.70
2019-05-09T19:33:00.585Z,0.70
2019-05-09T19:38:05.663Z,0.70
2019-05-09T19:43:10.174Z,0.70
2019-05-09T19:48:15.678Z,0.73
2019-05-09T19:53:20.208Z,0.70
2019-05-09T19:58:25.161Z,0.60
2019-05-09T20:03:31.076Z,0.70
2019-05-09T20:08:36.077Z,0.60
2019-05-09T20:13:58.713Z,0.60
2019-05-09T20:19:04.577Z,0.63
2019-05-09T20:24:10.261Z,0.70
2019-05-09T20:29:17.073Z,0.70
2019-05-09T20:34:21.739Z,0.70
2019-05-09T20:39:26.464Z,0.70
2019-05-09T20:44:31.250Z,0.63
2019-05-09T20:49:36.973Z,0.97
2019-05-09T20:54:42.837Z,0.90
2019-05-09T20:59:47.708Z,0.87
2019-05-09T21:04:52.427Z,1.00
2019-05-09T21:09:58.089Z,0.80
2019-05-09T21:15:02.981Z,0.90
2019-05-09T21:20:10.303Z,0.90
2019-05-09T21:25:15.008Z,0.93
2019-05-09T21:30:20.659Z,1.00
2019-05-09T21:35:25.217Z,1.00
2019-05-09T21:40:30.156Z,1.03
2019-05-09T21:45:34.685Z,1.00
2019-05-09T21:50:39.464Z,1.20
2019-05-09T21:55:44.070Z,0.97
2019-05-09T22:00:50.019Z,1.00
2019-05-09T22:05:56.092Z,0.90
2019-05-09T22:11:01.217Z,1.20
2019-05-09T22:16:05.733Z,1.17
2019-05-09T22:21:21.474Z,1.60
2019-05-09T22:26:26.008Z,1.73
2019-05-09T22:31:31.354Z,1.47
2019-05-09T22:36:35.873Z,1.50
2019-05-09T22:41:40.435Z,1.63
2019-05-09T22:46:44.973Z,1.50
2019-05-09T22:51:49.917Z,1.47
2019-05-09T22:56:54.487Z,1.93
2019-05-09T23:01:59.362Z,1.60
2019-05-09T23:07:03.969Z,2.07
2019-05-09T23:12:09.518Z,1.60
2019-05-09T23:17:14.136Z,1.80
2019-05-09T23:22:19.188Z,2.00
2019-05-09T23:27:23.705Z,1.67
2019-05-09T23:32:41.367Z,1.73
2019-05-09T23:37:45.894Z,1.77
2019-05-09T23:42:51.175Z,1.73
2019-05-09T23:47:55.760Z,2.20
2019-05-09T23:53:00.452Z,1.80
2019-05-09T23:58:22.805Z,1.67
